Terminal Aerodrome Forecast
Issued by NWS

Home | Current Version | Previous Version | Text Only | Print | Product List | Glossary On
Versions: 1 2 3 4 5 6 7 8 9 10 11 12 13 14 15
000
FTUS46 KSGX 032332
TAFPSP
TAF
KPSP 032332Z 0400/0424 33011G20KT P6SM FEW100
     FM040700 VRB06KT P6SM SKC
     FM042200 33011G20KT P6SM VCTS FEW100CB=

USA.gov is the U.S. government's official web portal to all federal, state and local government web resources and services.